Time;durP1;ratioP1;P1;durP2;ratioP2;P2;SDS_P1;SDS_P2;PMS_P1;PMS_P2;Temp;Humidity;BMP_temperature;BMP_pressure;BME280_temperature;BME280_humidity;BME280_pressure;Samples;Min_cycle;Max_cycle;Signal;HPM_P1;HPM_P2
2023/02/21 02:16:31;;;;;;;8.48;5.22;;;5.20;73.60;;;;;;5029777;28;20388;-58
2023/02/21 02:19:08;;;;;;;9.90;5.95;;;5.10;73.70;;;;;;5034132;28;20139;-58
2023/02/21 02:21:45;;;;;;;9.10;6.28;;;5.00;74.10;;;;;;5031217;28;20048;-62
2023/02/21 02:24:32;;;;;;;8.93;5.78;;;5.00;74.30;;;;;;5032780;28;20493;-61
2023/02/21 02:27:35;;;;;;;10.20;6.05;;;5.00;74.30;;;;;;5029305;28;20038;-59
2023/02/21 02:30:07;;;;;;;7.68;5.30;;;5.00;74.80;;;;;;5031666;28;20020;-60
2023/02/21 02:32:50;;;;;;;9.48;5.72;;;4.90;74.30;;;;;;5026768;28;20101;-59
2023/02/21 02:35:33;;;;;;;8.27;5.82;;;4.90;74.80;;;;;;5023413;28;20029;-60
2023/02/21 02:38:02;;;;;;;8.63;5.68;;;4.90;74.60;;;;;;5028942;28;20022;-58
2023/02/21 02:41:00;;;;;;;8.98;5.60;;;4.80;74.80;;;;;;5027964;28;20029;-59
2023/02/21 02:43:31;;;;;;;11.88;6.28;;;4.80;75.50;;;;;;5030482;28;20482;-60
2023/02/21 02:46:09;;;;;;;9.98;6.00;;;4.80;75.00;;;;;;5032173;28;20037;-55
2023/02/21 02:48:59;;;;;;;10.52;5.82;;;4.70;75.60;;;;;;5033808;28;20496;-60
2023/02/21 02:51:26;;;;;;;8.43;5.43;;;4.70;75.70;;;;;;5030348;28;20104;-60
2023/02/21 02:53:52;;;;;;;7.57;5.30;;;4.70;75.00;;;;;;5027774;28;20083;-60
2023/02/21 02:56:18;;;;;;;8.45;6.10;;;4.70;75.00;;;;;;5028555;28;20476;-58
2023/02/21 02:58:52;;;;;;;10.10;6.05;;;4.70;75.00;;;;;;5037250;28;20358;-60
2023/02/21 03:01:50;;;;;;;9.80;5.63;;;4.60;75.00;;;;;;5035186;28;20036;-58
2023/02/21 03:04:49;;;;;;;10.43;6.10;;;4.60;75.40;;;;;;5025207;28;20026;-59
2023/02/21 03:07:46;;;;;;;13.43;5.55;;;4.50;75.20;;;;;;5028022;28;20083;-59
2023/02/21 03:10:35;;;;;;;7.40;5.97;;;4.50;75.50;;;;;;5033329;28;20032;-58
2023/02/21 03:13:06;;;;;;;9.75;5.97;;;4.40;75.20;;;;;;5026126;28;20029;-58
2023/02/21 03:15:44;;;;;;;8.52;6.10;;;4.40;75.20;;;;;;5029514;28;20408;-59
2023/02/21 03:18:30;;;;;;;9.48;5.65;;;4.30;75.30;;;;;;5029436;28;20116;-58
2023/02/21 03:20:58;;;;;;;7.45;5.65;;;4.20;75.70;;;;;;5029155;28;20033;-61
2023/02/21 03:23:27;;;;;;;8.48;6.05;;;4.20;75.70;;;;;;5024983;28;20030;-61
2023/02/21 03:25:56;;;;;;;7.43;5.35;;;4.10;75.80;;;;;;5030992;28;20464;-60
2023/02/21 03:28:23;;;;;;;9.30;5.78;;;4.10;75.70;;;;;;5031130;28;20025;-59
2023/02/21 03:30:52;;;;;;;8.82;5.57;;;4.10;75.70;;;;;;5032471;28;20124;-59
2023/02/21 03:33:18;;;;;;;8.90;5.78;;;4.10;76.00;;;;;;5032187;28;20415;-59
2023/02/21 03:35:43;;;;;;;8.88;5.88;;;4.10;76.00;;;;;;5029963;28;20030;-61
2023/02/21 03:38:09;;;;;;;7.43;5.68;;;4.10;75.90;;;;;;5036948;28;20523;-60
2023/02/21 03:40:35;;;;;;;7.57;5.43;;;4.10;75.90;;;;;;5031872;28;20125;-61
2023/02/21 03:43:05;;;;;;;8.50;5.95;;;4.00;75.70;;;;;;5033960;28;20463;-59
2023/02/21 03:45:32;;;;;;;11.77;6.05;;;4.00;75.70;;;;;;5030518;28;20036;-60
2023/02/21 03:47:57;;;;;;;8.05;5.43;;;4.00;75.70;;;;;;5028773;28;20076;-60
2023/02/21 03:50:23;;;;;;;9.20;6.18;;;3.90;76.00;;;;;;5027309;28;20494;-61
2023/02/21 03:52:48;;;;;;;8.68;5.80;;;3.90;76.20;;;;;;5023019;28;20156;-58
2023/02/21 03:55:14;;;;;;;9.95;6.18;;;3.90;76.10;;;;;;5027106;28;20096;-59
2023/02/21 03:57:40;;;;;;;8.85;5.68;;;3.90;76.20;;;;;;5028212;28;20088;-59
2023/02/21 04:00:06;;;;;;;8.82;5.75;;;3.80;76.20;;;;;;5033133;28;20025;-58
2023/02/21 04:02:32;;;;;;;9.80;5.90;;;3.80;76.20;;;;;;5024720;28;20087;-59
2023/02/21 04:04:58;;;;;;;10.07;5.82;;;3.80;76.20;;;;;;5031169;28;20041;-61
2023/02/21 04:07:24;;;;;;;9.07;6.25;;;3.80;76.40;;;;;;5027524;28;20029;-60
2023/02/21 04:09:50;;;;;;;9.48;6.60;;;3.80;77.20;;;;;;5029229;28;20031;-61
2023/02/21 04:12:15;;;;;;;13.05;8.50;;;3.80;76.40;;;;;;5026263;28;20029;-59
2023/02/21 04:14:41;;;;;;;13.27;8.38;;;3.80;76.40;;;;;;5028762;28;20033;-60
2023/02/21 04:17:07;;;;;;;13.43;8.10;;;3.70;76.30;;;;;;5027664;28;20075;-60
2023/02/21 04:19:32;;;;;;;15.27;8.13;;;3.70;76.30;;;;;;5024859;28;20029;-61
2023/02/21 04:21:58;;;;;;;11.75;7.95;;;3.70;76.40;;;;;;5030612;28;20489;-59
2023/02/21 04:24:24;;;;;;;14.52;7.65;;;3.70;76.40;;;;;;5030630;28;20033;-59
2023/02/21 04:26:49;;;;;;;14.60;8.43;;;3.70;76.60;;;;;;5033524;28;20409;-60
2023/02/21 04:29:15;;;;;;;10.98;7.78;;;3.70;76.60;;;;;;5029070;28;20029;-56
2023/02/21 04:31:40;;;;;;;11.65;7.85;;;3.70;76.60;;;;;;5023850;28;20440;-57
2023/02/21 04:34:06;;;;;;;10.75;7.55;;;3.70;76.60;;;;;;5023850;28;20557;-58
2023/02/21 04:36:32;;;;;;;11.35;7.85;;;3.70;76.50;;;;;;5033820;28;20384;-59
2023/02/21 04:38:57;;;;;;;12.05;7.55;;;3.60;76.50;;;;;;5026402;28;20091;-58
2023/02/21 04:41:23;;;;;;;10.70;7.95;;;3.60;76.60;;;;;;5026161;28;20026;-58
2023/02/21 04:43:49;;;;;;;9.68;7.03;;;3.60;76.70;;;;;;5032954;28;20030;-58
2023/02/21 04:46:16;;;;;;;14.27;8.68;;;3.50;76.70;;;;;;5028602;28;20088;-58
2023/02/21 04:48:44;;;;;;;11.15;7.78;;;3.60;77.20;;;;;;5032541;28;20029;-58
2023/02/21 04:51:14;;;;;;;16.05;9.02;;;3.50;77.60;;;;;;5028123;28;20029;-60
2023/02/21 04:53:40;;;;;;;11.90;7.60;;;3.60;78.20;;;;;;5027009;28;20025;-59
2023/02/21 04:56:06;;;;;;;11.48;7.25;;;3.50;78.30;;;;;;5025902;28;20029;-59
2023/02/21 04:58:31;;;;;;;11.63;7.57;;;3.60;78.10;;;;;;5042560;28;20065;-61
2023/02/21 05:00:57;;;;;;;9.45;7.20;;;3.60;78.00;;;;;;5029245;28;20040;-58
2023/02/21 05:03:23;;;;;;;11.98;7.90;;;3.60;77.80;;;;;;5028615;28;20131;-58
2023/02/21 05:05:49;;;;;;;11.90;7.13;;;3.60;77.60;;;;;;5028917;28;20087;-60
2023/02/21 05:08:15;;;;;;;14.60;8.02;;;3.60;77.40;;;;;;5031088;28;20076;-58
2023/02/21 05:10:40;;;;;;;10.57;6.90;;;3.60;77.40;;;;;;5029388;28;20053;-60
2023/02/21 05:13:06;;;;;;;12.88;8.30;;;3.50;77.30;;;;;;5038177;28;20108;-59
2023/02/21 05:15:32;;;;;;;12.70;8.43;;;3.60;77.30;;;;;;5035061;28;20045;-60
2023/02/21 05:17:57;;;;;;;11.63;7.97;;;3.50;77.30;;;;;;5027256;28;20574;-61
2023/02/21 05:20:23;;;;;;;13.20;8.65;;;3.50;77.30;;;;;;5032492;28;20029;-59
2023/02/21 05:22:48;;;;;;;11.73;7.82;;;3.60;77.40;;;;;;5029838;28;20029;-59
2023/02/21 05:25:19;;;;;;;12.88;8.00;;;3.60;77.50;;;;;;5035266;28;20439;-57
2023/02/21 05:27:46;;;;;;;11.73;7.55;;;3.60;77.60;;;;;;5031474;28;20116;-61
2023/02/21 05:30:13;;;;;;;15.77;8.18;;;3.60;77.40;;;;;;5023125;28;20382;-60
2023/02/21 05:32:39;;;;;;;12.27;7.38;;;3.60;77.40;;;;;;5010857;28;20129;-61
2023/02/21 05:35:05;;;;;;;10.73;7.45;;;3.50;77.30;;;;;;5016251;28;20302;-59
2023/02/21 05:37:31;;;;;;;15.35;8.07;;;3.50;77.30;;;;;;5017346;28;20417;-59
2023/02/21 05:39:57;;;;;;;11.48;7.35;;;3.50;77.30;;;;;;5018858;28;20033;-58
2023/02/21 05:42:22;;;;;;;12.77;8.32;;;3.40;77.40;;;;;;5033385;28;20069;-59
2023/02/21 05:44:48;;;;;;;13.13;7.68;;;3.50;77.60;;;;;;5019682;28;20048;-59
2023/02/21 05:47:14;;;;;;;12.15;8.10;;;3.50;77.60;;;;;;5019429;28;20029;-59
2023/02/21 05:49:40;;;;;;;13.98;8.57;;;3.40;77.40;;;;;;5018425;28;20529;-59
2023/02/21 05:52:09;;;;;;;17.63;8.05;;;3.40;77.30;;;;;;5018913;28;20319;-59
2023/02/21 05:54:35;;;;;;;12.35;8.05;;;3.40;77.40;;;;;;5019109;28;20218;-59
2023/02/21 05:57:00;;;;;;;11.80;7.78;;;3.40;77.40;;;;;;5018846;28;20520;-59
2023/02/21 05:59:26;;;;;;;13.63;7.90;;;3.30;77.60;;;;;;5019592;28;20207;-56
2023/02/21 06:01:52;;;;;;;11.32;7.63;;;3.30;77.60;;;;;;5017780;28;20038;-59
2023/02/21 06:04:18;;;;;;;13.65;8.00;;;3.20;77.70;;;;;;5018715;28;20059;-57
2023/02/21 06:06:44;;;;;;;13.82;7.80;;;3.30;77.90;;;;;;5020448;28;20405;-57
2023/02/21 06:09:10;;;;;;;12.30;7.82;;;3.20;77.90;;;;;;5019759;28;20033;-58
2023/02/21 06:11:37;;;;;;;12.13;7.32;;;3.20;77.80;;;;;;5021906;28;20079;-59
2023/02/21 06:14:04;;;;;;;12.82;8.45;;;3.20;77.80;;;;;;5020186;28;20034;-58
2023/02/21 06:16:36;;;;;;;13.50;8.27;;;3.20;77.80;;;;;;5019160;28;20041;-58
2023/02/21 06:19:03;;;;;;;16.20;8.90;;;3.20;78.00;;;;;;5017809;28;20036;-60
2023/02/21 06:21:29;;;;;;;12.90;8.40;;;3.20;78.30;;;;;;5019743;28;20080;-60
2023/02/21 06:23:55;;;;;;;15.05;8.90;;;3.20;78.50;;;;;;5018557;28;20692;-57
2023/02/21 06:26:21;;;;;;;15.38;9.25;;;3.20;78.60;;;;;;5019038;28;20042;-60
2023/02/21 06:28:47;;;;;;;14.65;8.85;;;3.20;78.50;;;;;;5017383;28;20053;-60
2023/02/21 06:31:13;;;;;;;18.30;9.68;;;3.20;78.50;;;;;;5016760;28;20033;-60
2023/02/21 06:33:38;;;;;;;16.83;9.02;;;3.20;78.30;;;;;;5017657;28;20033;-59
2023/02/21 06:36:06;;;;;;;14.77;8.70;;;3.20;78.30;;;;;;5018817;28;20030;-58
2023/02/21 06:38:32;;;;;;;11.98;8.25;;;3.20;78.50;;;;;;5018605;28;20111;-58
2023/02/21 06:40:58;;;;;;;14.43;8.75;;;3.20;78.40;;;;;;5016967;28;20072;-59
2023/02/21 06:43:23;;;;;;;14.82;8.70;;;3.30;78.50;;;;;;5018601;28;20058;-60
2023/02/21 06:45:49;;;;;;;16.02;8.55;;;3.20;78.50;;;;;;5017974;28;20058;-60
2023/02/21 06:48:16;;;;;;;14.63;8.77;;;3.20;78.60;;;;;;5018582;28;20480;-60
2023/02/21 06:50:41;;;;;;;14.27;8.70;;;3.20;78.60;;;;;;5017235;28;20074;-57
2023/02/21 06:53:07;;;;;;;17.02;9.88;;;3.30;78.80;;;;;;5017512;28;20068;-58
2023/02/21 06:55:33;;;;;;;15.07;9.05;;;3.30;78.90;;;;;;5017937;28;20181;-58
2023/02/21 06:57:58;;;;;;;16.42;9.07;;;3.30;79.00;;;;;;5017261;28;20106;-60
2023/02/21 07:00:25;;;;;;;15.13;9.30;;;3.30;79.20;;;;;;5017699;28;20564;-59
2023/02/21 07:02:51;;;;;;;14.88;8.68;;;3.30;79.20;;;;;;5016347;28;20555;-56
2023/02/21 07:05:17;;;;;;;16.20;9.65;;;3.30;79.40;;;;;;5017618;28;20045;-54
2023/02/21 07:07:43;;;;;;;17.58;10.13;;;3.40;79.60;;;;;;5018706;28;20582;-55
2023/02/21 07:10:09;;;;;;;14.32;8.70;;;3.40;80.60;;;;;;5018880;28;20603;-56
2023/02/21 07:12:34;;;;;;;12.73;8.20;;;3.40;79.90;;;;;;5018684;28;20029;-57
2023/02/21 07:15:00;;;;;;;12.52;8.25;;;3.40;80.10;;;;;;5017905;28;20026;-57
2023/02/21 07:17:26;;;;;;;13.10;9.15;;;3.50;80.40;;;;;;5018207;28;20113;-58
2023/02/21 07:19:52;;;;;;;19.15;9.23;;;3.50;80.60;;;;;;5018497;28;20033;-60
2023/02/21 07:22:18;;;;;;;17.38;9.95;;;3.60;80.70;;;;;;5018725;28;20030;-58
2023/02/21 07:24:44;;;;;;;16.60;9.13;;;3.60;80.70;;;;;;5018449;28;20041;-59
2023/02/21 07:27:09;;;;;;;13.07;8.68;;;3.60;80.70;;;;;;5017960;28;20041;-59
2023/02/21 07:29:35;;;;;;;15.07;10.48;;;3.70;80.80;;;;;;5016723;28;20029;-61
2023/02/21 07:32:00;;;;;;;15.48;9.73;;;3.70;80.90;;;;;;5016568;28;20117;-60
2023/02/21 07:34:26;;;;;;;17.40;10.63;;;3.80;81.10;;;;;;5017750;28;20540;-59
2023/02/21 07:36:51;;;;;;;20.60;11.80;;;3.90;81.20;;;;;;5018135;28;20043;-60
2023/02/21 07:39:17;;;;;;;16.77;10.32;;;3.90;81.10;;;;;;5017795;28;20056;-58
2023/02/21 07:41:43;;;;;;;18.73;11.32;;;3.90;81.20;;;;;;5016977;28;20111;-59
2023/02/21 07:44:09;;;;;;;21.40;12.45;;;4.00;81.20;;;;;;5017953;28;20073;-60
2023/02/21 07:46:34;;;;;;;21.50;12.32;;;4.10;81.20;;;;;;5017108;28;20034;-60
2023/02/21 07:49:00;;;;;;;23.80;12.80;;;4.10;81.10;;;;;;5016262;28;20052;-61
2023/02/21 07:51:29;;;;;;;24.27;13.38;;;4.20;81.10;;;;;;5016603;28;20033;-57
2023/02/21 07:53:55;;;;;;;24.77;14.27;;;4.20;81.20;;;;;;5016676;28;20045;-58
2023/02/21 07:56:22;;;;;;;23.38;14.95;;;4.30;81.00;;;;;;5016060;28;20033;-61
2023/02/21 07:58:48;;;;;;;19.25;12.65;;;4.40;81.20;;;;;;5017069;28;20042;-61
2023/02/21 08:01:14;;;;;;;20.77;13.13;;;4.50;81.60;;;;;;5017491;28;20037;-60
2023/02/21 08:03:40;;;;;;;17.85;11.77;;;4.50;81.70;;;;;;5016200;28;20042;-60
2023/02/21 08:06:08;;;;;;;24.13;13.20;;;4.60;81.80;;;;;;5016807;28;20537;-59
2023/02/21 08:08:33;;;;;;;25.23;14.93;;;4.70;81.90;;;;;;5016675;28;20104;-61
2023/02/21 08:10:59;;;;;;;21.95;13.23;;;4.80;82.10;;;;;;5021962;28;20511;-59
2023/02/21 08:13:24;;;;;;;24.30;12.35;;;4.90;82.50;;;;;;5018057;28;20084;-61
2023/02/21 08:15:50;;;;;;;24.65;12.38;;;5.00;82.90;;;;;;5016706;28;20036;-61
2023/02/21 08:18:22;;;;;;;18.02;9.98;;;5.10;83.00;;;;;;5016419;28;20041;-60
2023/02/21 08:20:53;;;;;;;13.95;9.55;;;5.20;83.50;;;;;;5015281;28;20060;-61
2023/02/21 08:23:19;;;;;;;13.35;8.48;;;5.40;83.30;;;;;;5018351;28;20063;-60
2023/02/21 08:25:45;;;;;;;12.60;8.38;;;5.60;83.60;;;;;;5017642;28;20509;-56
2023/02/21 08:28:12;;;;;;;14.13;8.27;;;5.80;83.70;;;;;;5016444;28;20068;-61
2023/02/21 08:30:37;;;;;;;11.63;7.50;;;6.00;83.70;;;;;;5016439;28;20038;-61
2023/02/21 08:33:03;;;;;;;11.07;7.63;;;6.20;83.70;;;;;;5017083;28;20370;-58
2023/02/21 08:35:29;;;;;;;11.57;8.07;;;6.40;83.50;;;;;;5018106;28;20084;-60
2023/02/21 08:37:55;;;;;;;10.63;7.20;;;6.60;83.20;;;;;;5020956;28;20648;-61
2023/02/21 08:40:22;;;;;;;9.70;7.05;;;6.80;83.00;;;;;;5019918;28;20033;-60
2023/02/21 08:42:49;;;;;;;8.68;6.57;;;7.10;82.60;;;;;;5019863;28;20049;-58
2023/02/21 08:45:17;;;;;;;8.50;6.80;;;7.30;82.10;;;;;;5020585;28;20055;-59
2023/02/21 08:47:43;;;;;;;11.65;6.28;;;7.50;81.60;;;;;;5020825;28;20033;-60
2023/02/21 08:50:10;;;;;;;9.63;6.70;;;7.70;81.10;;;;;;5020341;28;20044;-58
2023/02/21 08:52:35;;;;;;;9.25;6.35;;;7.90;80.60;;;;;;5018340;28;20575;-60
2023/02/21 08:55:01;;;;;;;9.07;6.50;;;8.00;80.20;;;;;;5020304;28;20037;-59
2023/02/21 08:57:26;;;;;;;8.65;6.60;;;8.30;79.90;;;;;;5019617;28;20115;-60
2023/02/21 08:59:52;;;;;;;9.38;6.75;;;8.40;79.60;;;;;;5020058;28;20112;-59
2023/02/21 09:02:24;;;;;;;8.65;6.30;;;8.50;79.30;;;;;;5017461;28;20276;-59
2023/02/21 09:04:50;;;;;;;10.10;6.40;;;8.70;78.80;;;;;;5021929;28;20041;-59
2023/02/21 09:07:18;;;;;;;12.70;6.50;;;8.80;78.50;;;;;;5020613;28;20053;-59
2023/02/21 09:09:44;;;;;;;7.18;5.57;;;8.90;78.20;;;;;;5020738;28;20052;-60
2023/02/21 09:12:11;;;;;;;10.55;5.97;;;9.10;78.00;;;;;;5021524;28;20023;-59
2023/02/21 09:14:39;;;;;;;9.27;6.82;;;9.20;77.50;;;;;;5019772;28;20087;-59
2023/02/21 09:17:07;;;;;;;10.15;6.82;;;9.30;77.60;;;;;;5022595;28;20044;-59
2023/02/21 09:19:33;;;;;;;13.50;7.20;;;9.40;77.90;;;;;;5021635;28;20030;-61
2023/02/21 09:21:59;;;;;;;9.35;6.38;;;9.50;78.00;;;;;;5021685;28;20030;-59
2023/02/21 09:24:26;;;;;;;8.80;6.60;;;9.60;77.80;;;;;;5022032;28;20083;-60
2023/02/21 09:26:57;;;;;;;9.10;6.75;;;9.60;77.70;;;;;;5021115;28;20051;-59
2023/02/21 09:29:26;;;;;;;10.57;6.88;;;9.70;77.50;;;;;;5020343;28;20129;-59
2023/02/21 09:31:52;;;;;;;10.15;7.80;;;9.80;77.30;;;;;;5019553;28;20038;-61
2023/02/21 09:34:18;;;;;;;11.48;8.02;;;9.90;77.30;;;;;;5020166;28;20404;-61
2023/02/21 09:36:43;;;;;;;10.82;7.43;;;10.00;77.50;;;;;;5019146;28;20065;-57
2023/02/21 09:39:09;;;;;;;9.57;7.05;;;10.10;77.30;;;;;;5019183;28;20030;-56
2023/02/21 09:41:36;;;;;;;9.05;6.40;;;10.20;77.00;;;;;;5020611;28;20111;-60
2023/02/21 09:44:04;;;;;;;8.50;6.72;;;10.20;76.50;;;;;;5020237;28;20119;-59
2023/02/21 09:46:30;;;;;;;10.35;7.00;;;10.30;76.00;;;;;;5019418;28;20044;-61
2023/02/21 09:48:55;;;;;;;9.65;7.65;;;10.40;75.80;;;;;;5019691;28;20041;-60
2023/02/21 09:51:21;;;;;;;13.18;8.00;;;10.40;75.90;;;;;;5019527;28;20033;-59
2023/02/21 09:53:47;;;;;;;9.23;7.05;;;10.50;75.80;;;;;;5020826;28;20068;-58
2023/02/21 09:56:27;;;;;;;11.20;7.82;;;10.60;75.50;;;;;;5020413;28;20038;-58
2023/02/21 09:58:54;;;;;;;11.63;7.40;;;10.60;75.40;;;;;;5020250;28;20034;-61
2023/02/21 10:01:20;;;;;;;12.95;7.70;;;10.70;75.30;;;;;;5019991;28;20065;-60
2023/02/21 10:03:48;;;;;;;10.07;7.22;;;10.70;75.10;;;;;;5019488;28;20038;-60
2023/02/21 10:06:26;;;;;;;10.05;7.03;;;10.80;74.70;;;;;;5018673;28;20045;-58
2023/02/21 10:09:16;;;;;;;11.82;8.00;;;10.90;74.70;;;;;;5020293;28;20053;-59
2023/02/21 10:12:00;;;;;;;10.65;7.03;;;11.00;75.00;;;;;;5025430;28;20071;-62
2023/02/21 10:14:30;;;;;;;8.77;6.97;;;11.00;74.30;;;;;;5020733;28;20042;-61
2023/02/21 10:17:22;;;;;;;12.40;7.05;;;11.10;74.40;;;;;;5019802;28;20459;-62
2023/02/21 10:19:55;;;;;;;8.27;6.40;;;11.20;74.00;;;;;;5020773;28;20033;-62
2023/02/21 10:22:27;;;;;;;12.13;5.93;;;11.30;73.70;;;;;;5018428;28;20033;-61
2023/02/21 10:24:53;;;;;;;10.32;6.63;;;11.30;73.60;;;;;;5019140;28;20046;-61
2023/02/21 10:27:25;;;;;;;9.25;5.80;;;11.40;73.40;;;;;;5019692;28;20026;-60
2023/02/21 10:30:00;;;;;;;9.05;5.95;;;11.50;73.00;;;;;;5019319;28;20614;-60
2023/02/21 10:32:27;;;;;;;10.25;6.15;;;11.60;72.50;;;;;;5018314;28;20084;-59
2023/02/21 10:34:53;;;;;;;9.85;6.20;;;11.60;72.10;;;;;;5018249;28;20489;-61
2023/02/21 10:37:32;;;;;;;10.32;6.05;;;11.80;72.10;;;;;;5019091;28;20061;-61
2023/02/21 10:40:04;;;;;;;10.25;6.22;;;11.90;71.60;;;;;;5017825;28;20048;-60
2023/02/21 10:42:30;;;;;;;8.93;5.80;;;11.90;71.30;;;;;;5018582;28;20112;-59
2023/02/21 10:44:57;;;;;;;7.30;6.05;;;12.10;71.40;;;;;;5019229;28;20141;-61
2023/02/21 10:47:33;;;;;;;11.65;6.78;;;12.20;70.90;;;;;;5019371;28;20033;-62
2023/02/21 10:50:04;;;;;;;8.27;6.30;;;12.30;71.00;;;;;;5018794;28;21366;-62
2023/02/21 10:52:37;;;;;;;8.43;6.65;;;12.40;71.00;;;;;;5018991;28;20029;-61
2023/02/21 10:55:20;;;;;;;9.10;6.38;;;12.50;70.90;;;;;;5018734;28;20033;-61
2023/02/21 10:57:52;;;;;;;8.48;5.95;;;12.60;71.10;;;;;;5019465;28;20588;-60
2023/02/21 11:00:38;;;;;;;7.57;6.47;;;12.60;71.30;;;;;;5019302;28;20505;-60
2023/02/21 11:03:11;;;;;;;7.57;6.00;;;12.70;70.70;;;;;;5019118;28;20053;-60
2023/02/21 11:05:37;;;;;;;7.65;6.38;;;12.80;70.90;;;;;;5018848;28;20115;-60
2023/02/21 11:08:08;;;;;;;8.95;6.22;;;12.90;70.70;;;;;;5020083;28;20037;-61
2023/02/21 11:10:41;;;;;;;7.50;6.40;;;13.00;70.00;;;;;;5021203;28;20033;-60
2023/02/21 11:13:20;;;;;;;8.40;5.60;;;13.10;69.70;;;;;;5019391;28;20543;-61
2023/02/21 11:15:46;;;;;;;9.07;6.00;;;13.20;69.00;;;;;;5020936;28;20045;-61
2023/02/21 11:18:15;;;;;;;8.75;5.65;;;13.20;69.40;;;;;;5019873;28;20133;-63
2023/02/21 11:20:41;;;;;;;9.02;6.07;;;13.30;69.30;;;;;;5019458;28;20034;-61
2023/02/21 11:23:25;;;;;;;9.07;5.57;;;13.40;68.90;;;;;;5019072;28;20456;-61
2023/02/21 11:26:06;;;;;;;7.10;5.45;;;13.50;68.00;;;;;;5019224;28;20570;-62
2023/02/21 11:28:39;;;;;;;6.20;4.97;;;13.50;67.90;;;;;;5016906;28;20501;-60
2023/02/21 11:31:15;;;;;;;5.82;5.20;;;13.60;68.00;;;;;;5018977;28;20418;-61
2023/02/21 11:33:54;;;;;;;7.40;5.50;;;13.70;68.30;;;;;;5017287;28;20030;-62
2023/02/21 11:36:25;;;;;;;7.60;5.30;;;13.80;68.60;;;;;;5018549;28;20700;-61
2023/02/21 11:39:03;;;;;;;7.13;5.18;;;13.90;67.80;;;;;;5018343;28;20167;-61
2023/02/21 11:41:31;;;;;;;8.40;4.97;;;14.00;66.50;;;;;;5018148;28;20033;-61
2023/02/21 11:43:58;;;;;;;6.70;5.00;;;14.10;66.40;;;;;;5018686;28;20048;-61
2023/02/21 11:46:43;;;;;;;8.10;5.35;;;14.20;66.50;;;;;;5018063;28;20112;-58
2023/02/21 11:49:24;;;;;;;6.28;4.90;;;14.30;65.30;;;;;;5018480;28;20034;-61
2023/02/21 11:51:57;;;;;;;5.60;4.43;;;14.40;65.40;;;;;;5017241;28;20069;-60
2023/02/21 11:54:29;;;;;;;6.07;4.50;;;14.50;65.50;;;;;;5018375;28;20087;-61
2023/02/21 11:57:10;;;;;;;5.15;3.95;;;14.50;64.80;;;;;;5015780;28;20030;-62
2023/02/21 11:59:54;;;;;;;5.85;4.28;;;14.60;63.80;;;;;;5018391;28;20111;-61
2023/02/21 12:02:31;;;;;;;6.20;4.22;;;14.70;63.50;;;;;;5017412;28;20336;-58
2023/02/21 12:05:22;;;;;;;6.10;4.13;;;14.80;64.10;;;;;;5016762;28;20117;-60
2023/02/21 12:08:19;;;;;;;5.88;4.10;;;14.80;63.30;;;;;;5016209;28;20046;-61
2023/02/21 12:10:56;;;;;;;4.40;3.83;;;14.90;62.60;;;;;;5021328;28;20547;-59
2023/02/21 12:13:41;;;;;;;4.57;3.47;;;15.00;62.40;;;;;;5018191;28;20084;-60
2023/02/21 12:16:21;;;;;;;3.67;3.22;;;15.10;62.20;;;;;;5019665;28;20149;-60
2023/02/21 12:19:22;;;;;;;6.30;3.40;;;15.20;62.40;;;;;;5018056;28;20048;-60
2023/02/21 12:22:18;;;;;;;4.47;3.20;;;15.30;60.60;;;;;;4995927;28;20113;-61
2023/02/21 12:25:01;;;;;;;6.60;3.60;;;15.30;60.40;;;;;;5017192;28;20556;-59
2023/02/21 12:28:00;;;;;;;4.95;3.47;;;15.40;60.00;;;;;;5017072;28;20026;-58
2023/02/21 12:30:39;;;;;;;3.70;3.30;;;15.50;59.60;;;;;;5017021;28;20044;-61
2023/02/21 12:33:18;;;;;;;4.45;3.13;;;15.50;59.90;;;;;;5017582;28;20103;-61
2023/02/21 12:36:16;;;;;;;4.80;3.08;;;15.60;59.90;;;;;;5017310;28;20030;-63
2023/02/21 12:38:59;;;;;;;4.95;3.40;;;15.70;59.30;;;;;;5017393;28;20042;-61
2023/02/21 12:41:44;;;;;;;4.88;3.22;;;15.80;59.00;;;;;;5015812;28;20037;-62
2023/02/21 12:44:27;;;;;;;5.47;3.50;;;15.80;58.90;;;;;;5018360;28;20394;-60
2023/02/21 12:47:09;;;;;;;3.90;3.13;;;16.00;58.90;;;;;;5017139;28;20351;-61
2023/02/21 12:50:04;;;;;;;4.10;3.17;;;16.00;58.60;;;;;;5017239;28;20405;-61
2023/02/21 12:52:35;;;;;;;3.72;3.33;;;16.10;58.40;;;;;;5017002;28;20521;-59
2023/02/21 12:55:17;;;;;;;3.70;3.10;;;16.10;59.30;;;;;;5018381;28;20116;-60
2023/02/21 12:58:16;;;;;;;4.95;3.13;;;16.10;58.80;;;;;;5019099;28;20038;-61
2023/02/21 13:01:14;;;;;;;6.55;3.30;;;16.20;58.00;;;;;;5018577;28;20045;-60
2023/02/21 13:04:04;;;;;;;5.65;3.72;;;16.20;58.00;;;;;;5024793;28;20049;-61
2023/02/21 13:06:37;;;;;;;4.10;3.25;;;16.30;57.70;;;;;;5018373;28;20029;-61
2023/02/21 13:09:41;;;;;;;5.72;3.17;;;16.40;58.10;;;;;;5017283;28;20410;-62
2023/02/21 13:12:41;;;;;;;3.78;3.00;;;16.40;57.00;;;;;;5018541;28;20516;-61
2023/02/21 13:15:24;;;;;;;5.10;3.55;;;16.40;57.00;;;;;;4999350;28;20456;-60
2023/02/21 13:18:06;;;;;;;3.85;3.13;;;16.40;57.10;;;;;;5018260;28;20120;-60
2023/02/21 13:20:39;;;;;;;4.05;2.97;;;16.40;57.20;;;;;;5016643;28;20064;-60
2023/02/21 13:26:33;;;;;;;4.07;2.83;;;16.50;56.30;;;;;;5019606;28;20457;-61
2023/02/21 13:28:59;;;;;;;2.90;2.40;;;16.50;57.40;;;;;;5020666;28;20496;-60
2023/02/21 13:31:35;;;;;;;4.07;2.60;;;16.50;57.00;;;;;;5020889;28;20091;-61
2023/02/21 13:34:02;;;;;;;4.18;2.70;;;16.60;56.40;;;;;;5020428;28;20193;-59
2023/02/21 13:36:31;;;;;;;5.43;2.92;;;16.60;56.30;;;;;;5020504;28;20056;-61
2023/02/21 13:39:08;;;;;;;4.70;2.45;;;16.60;55.60;;;;;;5021290;28;20046;-62
2023/02/21 13:41:55;;;;;;;2.80;2.15;;;16.60;55.10;;;;;;5020311;28;20057;-60
2023/02/21 13:44:25;;;;;;;3.08;2.10;;;16.60;55.30;;;;;;5013622;28;20037;-60
2023/02/21 13:46:51;;;;;;;3.35;2.00;;;16.70;55.00;;;;;;5019599;28;20124;-59
2023/02/21 13:49:46;;;;;;;2.58;1.90;;;16.70;55.00;;;;;;5020351;28;20362;-61
2023/02/21 13:52:27;;;;;;;2.58;2.08;;;16.80;53.90;;;;;;5020722;28;20493;-61
2023/02/21 13:55:14;;;;;;;2.20;1.73;;;16.80;53.70;;;;;;5019703;28;20462;-60
2023/02/21 13:57:39;;;;;;;2.28;1.50;;;16.80;53.20;;;;;;5019742;28;20033;-58
2023/02/21 14:00:20;;;;;;;3.67;2.28;;;16.80;54.10;;;;;;5020491;28;20577;-59
2023/02/21 14:03:12;;;;;;;5.22;2.20;;;16.80;53.30;;;;;;5019490;28;20042;-60
2023/02/21 14:05:48;;;;;;;2.83;2.30;;;16.80;53.40;;;;;;5019258;28;20572;-61
2023/02/21 14:08:26;;;;;;;3.63;2.30;;;16.90;53.80;;;;;;5019915;28;20525;-60
2023/02/21 14:11:03;;;;;;;2.47;2.28;;;16.90;54.20;;;;;;5024686;28;20037;-62
2023/02/21 14:13:35;;;;;;;2.88;2.20;;;16.90;53.70;;;;;;5020674;28;20037;-62
2023/02/21 14:16:06;;;;;;;1.98;1.77;;;16.90;53.80;;;;;;5019385;28;20111;-60
2023/02/21 14:18:38;;;;;;;3.28;1.98;;;16.90;53.50;;;;;;5020217;28;20088;-63
2023/02/21 14:21:14;;;;;;;3.28;1.55;;;16.90;53.00;;;;;;5019755;28;20037;-61
2023/02/21 14:23:54;;;;;;;2.83;1.55;;;16.90;52.10;;;;;;5019365;28;20029;-59
2023/02/21 14:26:40;;;;;;;1.75;1.60;;;16.90;52.00;;;;;;5019589;28;20409;-61
2023/02/21 14:29:09;;;;;;;1.40;1.30;;;17.00;51.90;;;;;;5017748;28;20430;-62
2023/02/21 14:31:48;;;;;;;2.30;1.50;;;17.00;52.60;;;;;;5019384;28;20529;-62
2023/02/21 14:34:29;;;;;;;5.65;2.05;;;17.00;51.70;;;;;;5019991;28;20046;-59
2023/02/21 14:37:21;;;;;;;2.05;1.85;;;17.10;52.10;;;;;;5019609;28;20041;-61
2023/02/21 14:39:51;;;;;;;6.55;1.90;;;17.00;51.60;;;;;;5019510;28;20038;-60
2023/02/21 14:42:49;;;;;;;2.00;1.73;;;17.10;52.10;;;;;;5018429;28;20033;-61
2023/02/21 14:45:40;;;;;;;4.35;1.52;;;17.20;50.80;;;;;;5019974;28;20033;-60
2023/02/21 14:48:42;;;;;;;2.28;1.50;;;17.20;50.80;;;;;;5020698;28;20548;-61
2023/02/21 14:51:23;;;;;;;4.35;1.70;;;17.20;50.60;;;;;;5019460;28;20120;-61
2023/02/21 14:54:23;;;;;;;1.83;1.60;;;17.20;50.50;;;;;;5019603;28;20042;-61
2023/02/21 14:57:19;;;;;;;5.75;1.83;;;17.20;50.00;;;;;;5018614;28;20034;-62
2023/02/21 14:59:53;;;;;;;3.80;1.77;;;17.20;50.00;;;;;;5017417;28;20037;-62
2023/02/21 15:02:33;;;;;;;1.60;1.50;;;17.20;50.70;;;;;;5016254;28;20037;-61
2023/02/21 15:05:16;;;;;;;1.88;1.52;;;17.20;50.60;;;;;;5014315;28;20083;-62
2023/02/21 15:07:48;;;;;;;1.70;1.60;;;17.20;49.40;;;;;;5017296;28;20090;-62
2023/02/21 15:10:15;;;;;;;2.50;1.50;;;17.20;49.70;;;;;;5018360;28;20543;-61
2023/02/21 15:12:50;;;;;;;1.73;1.38;;;17.20;50.20;;;;;;5014332;28;20038;-61
2023/02/21 15:15:28;;;;;;;1.50;1.33;;;17.20;50.10;;;;;;5018035;28;20034;-60
2023/02/21 15:18:33;;;;;;;1.33;1.17;;;17.20;50.30;;;;;;5017020;28;20033;-61
2023/02/21 15:21:11;;;;;;;1.88;1.25;;;17.20;49.10;;;;;;5015082;28;20520;-61
2023/02/21 15:23:38;;;;;;;2.95;1.38;;;17.20;50.10;;;;;;5015347;28;20120;-61
2023/02/21 15:26:23;;;;;;;1.20;1.10;;;17.20;50.40;;;;;;5014300;28;20036;-62
2023/02/21 15:29:12;;;;;;;2.22;1.35;;;17.20;49.30;;;;;;5011675;28;20060;-62
2023/02/21 15:31:42;;;;;;;2.67;1.27;;;17.20;49.10;;;;;;5014372;28;20558;-60
2023/02/21 15:34:17;;;;;;;2.30;1.30;;;17.20;50.00;;;;;;5013169;28;20042;-61